sensor_id;sensor_type;location;lat;lon;timestamp;P1;durP1;ratioP1;P2;durP2;ratioP2
7645;SDS011;3864;48.180;14.178;2023-05-10T00:02:25;9.70;;;6.13;;
7645;SDS011;3864;48.180;14.178;2023-05-10T00:04:52;8.05;;;5.38;;
7645;SDS011;3864;48.180;14.178;2023-05-10T00:07:19;8.65;;;5.60;;
7645;SDS011;3864;48.180;14.178;2023-05-10T00:12:13;9.18;;;5.65;;
7645;SDS011;3864;48.180;14.178;2023-05-10T00:14:41;7.63;;;4.80;;
7645;SDS011;3864;48.180;14.178;2023-05-10T00:17:09;7.60;;;5.32;;
7645;SDS011;3864;48.180;14.178;2023-05-10T00:19:36;8.20;;;5.95;;
7645;SDS011;3864;48.180;14.178;2023-05-10T00:22:03;7.55;;;5.63;;
7645;SDS011;3864;48.180;14.178;2023-05-10T00:24:30;7.82;;;5.38;;
7645;SDS011;3864;48.180;14.178;2023-05-10T00:26:56;8.07;;;5.25;;
7645;SDS011;3864;48.180;14.178;2023-05-10T00:31:52;8.70;;;5.40;;
7645;SDS011;3864;48.180;14.178;2023-05-10T00:34:19;7.93;;;5.50;;
7645;SDS011;3864;48.180;14.178;2023-05-10T00:36:46;7.55;;;5.53;;
7645;SDS011;3864;48.180;14.178;2023-05-10T00:39:13;8.48;;;4.95;;
7645;SDS011;3864;48.180;14.178;2023-05-10T00:41:40;7.38;;;4.90;;
7645;SDS011;3864;48.180;14.178;2023-05-10T00:46:33;7.78;;;5.25;;
7645;SDS011;3864;48.180;14.178;2023-05-10T00:49:02;8.32;;;5.18;;
7645;SDS011;3864;48.180;14.178;2023-05-10T00:51:29;9.75;;;5.68;;
7645;SDS011;3864;48.180;14.178;2023-05-10T00:53:57;9.98;;;6.10;;
7645;SDS011;3864;48.180;14.178;2023-05-10T00:56:25;7.50;;;5.28;;
7645;SDS011;3864;48.180;14.178;2023-05-10T00:58:52;8.63;;;5.57;;
7645;SDS011;3864;48.180;14.178;2023-05-10T01:01:19;8.68;;;5.18;;
7645;SDS011;3864;48.180;14.178;2023-05-10T01:03:46;9.38;;;5.28;;
7645;SDS011;3864;48.180;14.178;2023-05-10T01:06:15;7.72;;;5.10;;
7645;SDS011;3864;48.180;14.178;2023-05-10T01:08:42;8.30;;;6.18;;
7645;SDS011;3864;48.180;14.178;2023-05-10T01:11:09;8.55;;;6.10;;
7645;SDS011;3864;48.180;14.178;2023-05-10T01:13:36;7.68;;;5.43;;
7645;SDS011;3864;48.180;14.178;2023-05-10T01:16:04;8.68;;;6.13;;
7645;SDS011;3864;48.180;14.178;2023-05-10T01:18:33;8.02;;;4.82;;
7645;SDS011;3864;48.180;14.178;2023-05-10T01:21:04;7.50;;;4.97;;
7645;SDS011;3864;48.180;14.178;2023-05-10T01:23:39;7.60;;;5.50;;
7645;SDS011;3864;48.180;14.178;2023-05-10T01:31:52;7.30;;;4.75;;
7645;SDS011;3864;48.180;14.178;2023-05-10T01:34:23;8.38;;;5.35;;
7645;SDS011;3864;48.180;14.178;2023-05-10T01:36:54;7.25;;;5.10;;
7645;SDS011;3864;48.180;14.178;2023-05-10T01:39:23;7.53;;;4.50;;
7645;SDS011;3864;48.180;14.178;2023-05-10T01:41:52;6.68;;;4.50;;
7645;SDS011;3864;48.180;14.178;2023-05-10T01:44:23;7.60;;;5.32;;
7645;SDS011;3864;48.180;14.178;2023-05-10T01:46:53;7.25;;;4.70;;
7645;SDS011;3864;48.180;14.178;2023-05-10T01:49:23;6.53;;;4.85;;
7645;SDS011;3864;48.180;14.178;2023-05-10T01:51:54;7.82;;;5.30;;
7645;SDS011;3864;48.180;14.178;2023-05-10T01:54:25;8.60;;;5.80;;
7645;SDS011;3864;48.180;14.178;2023-05-10T01:56:55;7.32;;;5.07;;
7645;SDS011;3864;48.180;14.178;2023-05-10T01:59:23;7.43;;;5.38;;
7645;SDS011;3864;48.180;14.178;2023-05-10T02:01:56;8.20;;;5.53;;
7645;SDS011;3864;48.180;14.178;2023-05-10T02:04:24;7.38;;;5.15;;
7645;SDS011;3864;48.180;14.178;2023-05-10T02:06:58;8.43;;;6.05;;
7645;SDS011;3864;48.180;14.178;2023-05-10T02:09:25;7.10;;;5.50;;
7645;SDS011;3864;48.180;14.178;2023-05-10T02:11:52;7.72;;;5.32;;
7645;SDS011;3864;48.180;14.178;2023-05-10T02:14:19;8.10;;;5.82;;
7645;SDS011;3864;48.180;14.178;2023-05-10T02:16:46;8.02;;;6.00;;
7645;SDS011;3864;48.180;14.178;2023-05-10T02:19:15;8.35;;;5.40;;
7645;SDS011;3864;48.180;14.178;2023-05-10T02:21:43;10.50;;;5.40;;
7645;SDS011;3864;48.180;14.178;2023-05-10T02:24:11;8.63;;;5.80;;
7645;SDS011;3864;48.180;14.178;2023-05-10T02:26:38;9.73;;;6.22;;
7645;SDS011;3864;48.180;14.178;2023-05-10T02:29:06;8.88;;;5.80;;
7645;SDS011;3864;48.180;14.178;2023-05-10T02:31:33;8.88;;;6.32;;
7645;SDS011;3864;48.180;14.178;2023-05-10T02:34:03;8.65;;;6.00;;
7645;SDS011;3864;48.180;14.178;2023-05-10T02:36:32;10.25;;;6.60;;
7645;SDS011;3864;48.180;14.178;2023-05-10T02:38:59;8.23;;;6.32;;
7645;SDS011;3864;48.180;14.178;2023-05-10T02:41:27;8.38;;;6.00;;
7645;SDS011;3864;48.180;14.178;2023-05-10T02:43:55;8.88;;;5.80;;
7645;SDS011;3864;48.180;14.178;2023-05-10T02:46:23;9.45;;;6.72;;
7645;SDS011;3864;48.180;14.178;2023-05-10T02:48:49;12.15;;;6.18;;
7645;SDS011;3864;48.180;14.178;2023-05-10T02:53:46;9.18;;;5.78;;
7645;SDS011;3864;48.180;14.178;2023-05-10T02:56:13;8.55;;;6.18;;
7645;SDS011;3864;48.180;14.178;2023-05-10T02:58:42;8.15;;;6.05;;
7645;SDS011;3864;48.180;14.178;2023-05-10T03:01:09;9.68;;;6.57;;
7645;SDS011;3864;48.180;14.178;2023-05-10T03:03:36;8.35;;;5.57;;
7645;SDS011;3864;48.180;14.178;2023-05-10T03:06:03;8.52;;;6.03;;
7645;SDS011;3864;48.180;14.178;2023-05-10T03:08:30;9.10;;;5.72;;
7645;SDS011;3864;48.180;14.178;2023-05-10T03:11:04;8.20;;;5.22;;
7645;SDS011;3864;48.180;14.178;2023-05-10T03:13:36;8.00;;;5.70;;
7645;SDS011;3864;48.180;14.178;2023-05-10T03:16:07;8.52;;;5.50;;
7645;SDS011;3864;48.180;14.178;2023-05-10T03:18:37;8.15;;;6.00;;
7645;SDS011;3864;48.180;14.178;2023-05-10T03:21:08;11.18;;;5.90;;
7645;SDS011;3864;48.180;14.178;2023-05-10T03:23:40;7.50;;;5.50;;
7645;SDS011;3864;48.180;14.178;2023-05-10T03:26:09;8.20;;;6.00;;
7645;SDS011;3864;48.180;14.178;2023-05-10T03:28:36;8.32;;;5.57;;
7645;SDS011;3864;48.180;14.178;2023-05-10T03:31:03;7.93;;;5.30;;
7645;SDS011;3864;48.180;14.178;2023-05-10T03:33:30;7.63;;;5.57;;
7645;SDS011;3864;48.180;14.178;2023-05-10T03:35:57;7.75;;;5.80;;
7645;SDS011;3864;48.180;14.178;2023-05-10T03:38:25;7.53;;;5.97;;
7645;SDS011;3864;48.180;14.178;2023-05-10T03:40:51;8.05;;;5.88;;
7645;SDS011;3864;48.180;14.178;2023-05-10T03:43:20;7.05;;;5.68;;
7645;SDS011;3864;48.180;14.178;2023-05-10T03:45:46;7.90;;;6.07;;
7645;SDS011;3864;48.180;14.178;2023-05-10T03:48:13;7.20;;;5.47;;
7645;SDS011;3864;48.180;14.178;2023-05-10T03:50:40;8.23;;;5.75;;
7645;SDS011;3864;48.180;14.178;2023-05-10T03:53:07;8.82;;;5.88;;
7645;SDS011;3864;48.180;14.178;2023-05-10T03:58:01;8.70;;;5.80;;
7645;SDS011;3864;48.180;14.178;2023-05-10T04:00:29;7.80;;;5.47;;
7645;SDS011;3864;48.180;14.178;2023-05-10T04:02:57;8.15;;;5.78;;
7645;SDS011;3864;48.180;14.178;2023-05-10T04:05:24;6.65;;;5.53;;
7645;SDS011;3864;48.180;14.178;2023-05-10T04:10:18;7.85;;;5.55;;
7645;SDS011;3864;48.180;14.178;2023-05-10T04:12:46;8.20;;;5.80;;
7645;SDS011;3864;48.180;14.178;2023-05-10T04:15:13;8.10;;;6.20;;
7645;SDS011;3864;48.180;14.178;2023-05-10T04:17:41;9.10;;;6.22;;
7645;SDS011;3864;48.180;14.178;2023-05-10T04:20:09;8.45;;;6.07;;
7645;SDS011;3864;48.180;14.178;2023-05-10T04:24:58;9.45;;;6.22;;
7645;SDS011;3864;48.180;14.178;2023-05-10T04:26:17;8.48;;;5.47;;
7645;SDS011;3864;48.180;14.178;2023-05-10T04:29:01;6.80;;;5.50;;
7645;SDS011;3864;48.180;14.178;2023-05-10T04:31:28;7.43;;;5.53;;
7645;SDS011;3864;48.180;14.178;2023-05-10T04:33:57;6.78;;;5.20;;
7645;SDS011;3864;48.180;14.178;2023-05-10T04:36:24;6.82;;;5.32;;
7645;SDS011;3864;48.180;14.178;2023-05-10T04:38:51;7.32;;;5.32;;
7645;SDS011;3864;48.180;14.178;2023-05-10T04:41:17;8.13;;;5.25;;
7645;SDS011;3864;48.180;14.178;2023-05-10T04:43:45;8.65;;;5.95;;
7645;SDS011;3864;48.180;14.178;2023-05-10T04:46:14;7.68;;;5.85;;
7645;SDS011;3864;48.180;14.178;2023-05-10T04:48:40;6.97;;;5.30;;
7645;SDS011;3864;48.180;14.178;2023-05-10T04:51:09;7.93;;;6.00;;
7645;SDS011;3864;48.180;14.178;2023-05-10T04:53:36;7.10;;;5.60;;
7645;SDS011;3864;48.180;14.178;2023-05-10T04:56:03;9.77;;;6.93;;
7645;SDS011;3864;48.180;14.178;2023-05-10T04:58:30;7.80;;;5.65;;
7645;SDS011;3864;48.180;14.178;2023-05-10T05:00:57;8.48;;;5.90;;
7645;SDS011;3864;48.180;14.178;2023-05-10T05:03:24;10.77;;;6.22;;
7645;SDS011;3864;48.180;14.178;2023-05-10T05:05:51;11.02;;;5.95;;
7645;SDS011;3864;48.180;14.178;2023-05-10T05:08:19;8.93;;;6.43;;
7645;SDS011;3864;48.180;14.178;2023-05-10T05:10:47;9.07;;;5.88;;
7645;SDS011;3864;48.180;14.178;2023-05-10T05:13:15;7.82;;;5.78;;
7645;SDS011;3864;48.180;14.178;2023-05-10T05:15:42;9.35;;;6.18;;
7645;SDS011;3864;48.180;14.178;2023-05-10T05:18:08;8.00;;;5.78;;
7645;SDS011;3864;48.180;14.178;2023-05-10T05:20:35;9.20;;;5.80;;
7645;SDS011;3864;48.180;14.178;2023-05-10T05:23:02;8.48;;;5.90;;
7645;SDS011;3864;48.180;14.178;2023-05-10T05:25:31;9.32;;;6.10;;
7645;SDS011;3864;48.180;14.178;2023-05-10T05:27:57;7.45;;;5.43;;
7645;SDS011;3864;48.180;14.178;2023-05-10T05:30:24;7.90;;;5.55;;
7645;SDS011;3864;48.180;14.178;2023-05-10T05:32:51;11.15;;;6.03;;
7645;SDS011;3864;48.180;14.178;2023-05-10T05:35:18;6.32;;;5.35;;
7645;SDS011;3864;48.180;14.178;2023-05-10T05:37:45;9.40;;;5.80;;
7645;SDS011;3864;48.180;14.178;2023-05-10T05:40:12;7.47;;;5.82;;
7645;SDS011;3864;48.180;14.178;2023-05-10T05:42:41;8.55;;;6.43;;
7645;SDS011;3864;48.180;14.178;2023-05-10T05:45:08;9.20;;;6.18;;
7645;SDS011;3864;48.180;14.178;2023-05-10T05:47:38;8.52;;;6.25;;
7645;SDS011;3864;48.180;14.178;2023-05-10T05:50:05;8.48;;;5.60;;
7645;SDS011;3864;48.180;14.178;2023-05-10T05:52:32;7.25;;;5.60;;
7645;SDS011;3864;48.180;14.178;2023-05-10T05:57:25;9.48;;;5.20;;
7645;SDS011;3864;48.180;14.178;2023-05-10T05:59:53;7.90;;;5.68;;
7645;SDS011;3864;48.180;14.178;2023-05-10T06:02:21;7.20;;;6.10;;
7645;SDS011;3864;48.180;14.178;2023-05-10T06:04:48;7.80;;;5.22;;
7645;SDS011;3864;48.180;14.178;2023-05-10T06:07:15;7.70;;;5.22;;
7645;SDS011;3864;48.180;14.178;2023-05-10T06:09:42;9.15;;;6.00;;
7645;SDS011;3864;48.180;14.178;2023-05-10T06:12:09;8.13;;;5.88;;
7645;SDS011;3864;48.180;14.178;2023-05-10T06:14:36;9.60;;;6.10;;
7645;SDS011;3864;48.180;14.178;2023-05-10T06:17:05;10.32;;;6.95;;
7645;SDS011;3864;48.180;14.178;2023-05-10T06:19:32;9.00;;;6.80;;
7645;SDS011;3864;48.180;14.178;2023-05-10T06:21:59;12.38;;;6.82;;
7645;SDS011;3864;48.180;14.178;2023-05-10T06:24:26;9.43;;;7.10;;
7645;SDS011;3864;48.180;14.178;2023-05-10T06:26:53;9.02;;;7.22;;
7645;SDS011;3864;48.180;14.178;2023-05-10T06:29:20;10.25;;;7.10;;
7645;SDS011;3864;48.180;14.178;2023-05-10T06:31:48;9.80;;;7.57;;
7645;SDS011;3864;48.180;14.178;2023-05-10T06:34:16;11.18;;;7.90;;
7645;SDS011;3864;48.180;14.178;2023-05-10T06:36:43;11.68;;;7.90;;
7645;SDS011;3864;48.180;14.178;2023-05-10T06:39:10;10.80;;;8.20;;
7645;SDS011;3864;48.180;14.178;2023-05-10T06:41:38;12.32;;;8.55;;
7645;SDS011;3864;48.180;14.178;2023-05-10T06:44:05;11.40;;;8.52;;
7645;SDS011;3864;48.180;14.178;2023-05-10T06:48:59;11.48;;;7.80;;
7645;SDS011;3864;48.180;14.178;2023-05-10T06:51:27;11.10;;;8.25;;
7645;SDS011;3864;48.180;14.178;2023-05-10T06:53:54;12.05;;;8.40;;
7645;SDS011;3864;48.180;14.178;2023-05-10T06:56:21;11.25;;;7.45;;
7645;SDS011;3864;48.180;14.178;2023-05-10T06:58:48;9.98;;;7.22;;
7645;SDS011;3864;48.180;14.178;2023-05-10T07:01:15;10.45;;;7.32;;
7645;SDS011;3864;48.180;14.178;2023-05-10T07:03:42;11.02;;;7.78;;
7645;SDS011;3864;48.180;14.178;2023-05-10T07:06:09;9.85;;;6.95;;
7645;SDS011;3864;48.180;14.178;2023-05-10T07:08:38;10.82;;;6.93;;
7645;SDS011;3864;48.180;14.178;2023-05-10T07:11:05;10.85;;;7.75;;
7645;SDS011;3864;48.180;14.178;2023-05-10T07:13:33;10.68;;;7.50;;
7645;SDS011;3864;48.180;14.178;2023-05-10T07:16:01;11.50;;;7.45;;
7645;SDS011;3864;48.180;14.178;2023-05-10T07:18:29;10.25;;;7.28;;
7645;SDS011;3864;48.180;14.178;2023-05-10T07:20:56;8.30;;;6.68;;
7645;SDS011;3864;48.180;14.178;2023-05-10T07:23:23;11.00;;;7.38;;
7645;SDS011;3864;48.180;14.178;2023-05-10T07:25:52;11.15;;;7.38;;
7645;SDS011;3864;48.180;14.178;2023-05-10T07:28:19;10.60;;;8.07;;
7645;SDS011;3864;48.180;14.178;2023-05-10T07:33:12;12.10;;;8.98;;
7645;SDS011;3864;48.180;14.178;2023-05-10T07:35:40;15.60;;;9.77;;
7645;SDS011;3864;48.180;14.178;2023-05-10T07:38:07;12.32;;;9.43;;
7645;SDS011;3864;48.180;14.178;2023-05-10T07:40:33;13.45;;;9.50;;
7645;SDS011;3864;48.180;14.178;2023-05-10T07:43:02;12.40;;;8.55;;
7645;SDS011;3864;48.180;14.178;2023-05-10T07:45:29;13.88;;;9.63;;
7645;SDS011;3864;48.180;14.178;2023-05-10T07:47:56;12.88;;;9.10;;
7645;SDS011;3864;48.180;14.178;2023-05-10T07:50:23;12.93;;;9.15;;
7645;SDS011;3864;48.180;14.178;2023-05-10T07:52:50;13.55;;;9.23;;
7645;SDS011;3864;48.180;14.178;2023-05-10T07:55:18;13.43;;;8.82;;
7645;SDS011;3864;48.180;14.178;2023-05-10T07:57:46;12.80;;;8.82;;
7645;SDS011;3864;48.180;14.178;2023-05-10T08:00:16;13.73;;;8.77;;
7645;SDS011;3864;48.180;14.178;2023-05-10T08:02:43;15.00;;;9.48;;
7645;SDS011;3864;48.180;14.178;2023-05-10T08:07:36;13.07;;;8.45;;
7645;SDS011;3864;48.180;14.178;2023-05-10T08:10:03;13.30;;;8.32;;
7645;SDS011;3864;48.180;14.178;2023-05-10T08:12:30;13.10;;;9.32;;
7645;SDS011;3864;48.180;14.178;2023-05-10T08:14:57;11.55;;;8.77;;
7645;SDS011;3864;48.180;14.178;2023-05-10T08:17:26;12.52;;;9.07;;
7645;SDS011;3864;48.180;14.178;2023-05-10T08:19:52;15.35;;;9.90;;
7645;SDS011;3864;48.180;14.178;2023-05-10T08:22:19;17.42;;;9.65;;
7645;SDS011;3864;48.180;14.178;2023-05-10T08:24:46;13.35;;;8.93;;
7645;SDS011;3864;48.180;14.178;2023-05-10T08:27:13;12.50;;;7.78;;
7645;SDS011;3864;48.180;14.178;2023-05-10T08:29:40;12.13;;;8.15;;
7645;SDS011;3864;48.180;14.178;2023-05-10T08:32:07;11.82;;;8.13;;
7645;SDS011;3864;48.180;14.178;2023-05-10T08:34:36;12.88;;;8.15;;
7645;SDS011;3864;48.180;14.178;2023-05-10T08:37:03;12.23;;;7.45;;
7645;SDS011;3864;48.180;14.178;2023-05-10T08:39:33;10.73;;;7.57;;
7645;SDS011;3864;48.180;14.178;2023-05-10T08:42:01;12.60;;;7.03;;
7645;SDS011;3864;48.180;14.178;2023-05-10T08:44:28;10.57;;;7.53;;
7645;SDS011;3864;48.180;14.178;2023-05-10T08:46:56;11.65;;;6.60;;
7645;SDS011;3864;48.180;14.178;2023-05-10T08:49:23;9.80;;;7.43;;
7645;SDS011;3864;48.180;14.178;2023-05-10T08:51:54;11.40;;;7.40;;
7645;SDS011;3864;48.180;14.178;2023-05-10T08:54:21;10.50;;;8.13;;
7645;SDS011;3864;48.180;14.178;2023-05-10T08:56:48;12.13;;;7.65;;
7645;SDS011;3864;48.180;14.178;2023-05-10T08:59:16;12.27;;;8.30;;
7645;SDS011;3864;48.180;14.178;2023-05-10T09:01:43;11.80;;;6.68;;
7645;SDS011;3864;48.180;14.178;2023-05-10T09:04:12;11.38;;;6.57;;
7645;SDS011;3864;48.180;14.178;2023-05-10T09:06:39;12.95;;;7.90;;
7645;SDS011;3864;48.180;14.178;2023-05-10T09:09:08;12.82;;;8.00;;
7645;SDS011;3864;48.180;14.178;2023-05-10T09:11:36;11.02;;;7.20;;
7645;SDS011;3864;48.180;14.178;2023-05-10T09:14:03;12.23;;;8.20;;
7645;SDS011;3864;48.180;14.178;2023-05-10T09:16:30;10.40;;;8.50;;
7645;SDS011;3864;48.180;14.178;2023-05-10T09:18:56;14.55;;;8.98;;
7645;SDS011;3864;48.180;14.178;2023-05-10T09:21:24;12.23;;;8.90;;
7645;SDS011;3864;48.180;14.178;2023-05-10T09:23:51;14.90;;;9.05;;
7645;SDS011;3864;48.180;14.178;2023-05-10T09:26:23;14.35;;;9.45;;
7645;SDS011;3864;48.180;14.178;2023-05-10T09:28:51;14.13;;;10.25;;
7645;SDS011;3864;48.180;14.178;2023-05-10T09:31:18;13.73;;;10.30;;
7645;SDS011;3864;48.180;14.178;2023-05-10T09:33:45;18.67;;;11.90;;
7645;SDS011;3864;48.180;14.178;2023-05-10T09:36:12;13.38;;;10.88;;
7645;SDS011;3864;48.180;14.178;2023-05-10T09:38:45;11.98;;;9.55;;
7645;SDS011;3864;48.180;14.178;2023-05-10T09:41:16;12.32;;;9.55;;
7645;SDS011;3864;48.180;14.178;2023-05-10T09:43:46;11.95;;;9.48;;
7645;SDS011;3864;48.180;14.178;2023-05-10T09:46:13;9.75;;;8.07;;
7645;SDS011;3864;48.180;14.178;2023-05-10T09:48:41;12.63;;;9.00;;
7645;SDS011;3864;48.180;14.178;2023-05-10T09:51:08;10.25;;;8.60;;
7645;SDS011;3864;48.180;14.178;2023-05-10T09:53:35;11.73;;;9.32;;
7645;SDS011;3864;48.180;14.178;2023-05-10T09:56:02;11.55;;;9.00;;
7645;SDS011;3864;48.180;14.178;2023-05-10T09:58:29;11.48;;;8.73;;
7645;SDS011;3864;48.180;14.178;2023-05-10T10:00:57;12.55;;;9.40;;
7645;SDS011;3864;48.180;14.178;2023-05-10T10:03:24;10.88;;;9.07;;
7645;SDS011;3864;48.180;14.178;2023-05-10T10:05:51;10.68;;;8.60;;
7645;SDS011;3864;48.180;14.178;2023-05-10T10:08:21;11.38;;;9.55;;
7645;SDS011;3864;48.180;14.178;2023-05-10T10:10:48;10.80;;;8.95;;
7645;SDS011;3864;48.180;14.178;2023-05-10T10:13:15;11.18;;;8.80;;
7645;SDS011;3864;48.180;14.178;2023-05-10T10:15:42;12.15;;;8.20;;
7645;SDS011;3864;48.180;14.178;2023-05-10T10:18:13;10.10;;;7.40;;
7645;SDS011;3864;48.180;14.178;2023-05-10T10:20:41;9.32;;;7.60;;
7645;SDS011;3864;48.180;14.178;2023-05-10T10:23:08;10.75;;;7.57;;
7645;SDS011;3864;48.180;14.178;2023-05-10T10:25:35;10.35;;;8.15;;
7645;SDS011;3864;48.180;14.178;2023-05-10T10:28:14;9.27;;;7.47;;
7645;SDS011;3864;48.180;14.178;2023-05-10T10:30:43;10.10;;;8.05;;
7645;SDS011;3864;48.180;14.178;2023-05-10T10:35:55;10.82;;;7.72;;
7645;SDS011;3864;48.180;14.178;2023-05-10T10:38:24;9.07;;;7.30;;
7645;SDS011;3864;48.180;14.178;2023-05-10T10:41:01;8.50;;;7.55;;
7645;SDS011;3864;48.180;14.178;2023-05-10T10:43:31;10.25;;;7.50;;
7645;SDS011;3864;48.180;14.178;2023-05-10T10:46:14;11.75;;;8.05;;
7645;SDS011;3864;48.180;14.178;2023-05-10T10:48:46;10.95;;;8.02;;
7645;SDS011;3864;48.180;14.178;2023-05-10T10:51:16;10.82;;;8.50;;
7645;SDS011;3864;48.180;14.178;2023-05-10T10:53:43;8.48;;;7.53;;
7645;SDS011;3864;48.180;14.178;2023-05-10T10:56:10;16.42;;;8.48;;
7645;SDS011;3864;48.180;14.178;2023-05-10T10:58:38;13.85;;;8.27;;
7645;SDS011;3864;48.180;14.178;2023-05-10T11:01:10;10.63;;;8.20;;
7645;SDS011;3864;48.180;14.178;2023-05-10T11:03:37;10.25;;;7.75;;
7645;SDS011;3864;48.180;14.178;2023-05-10T11:06:04;11.50;;;9.30;;
7645;SDS011;3864;48.180;14.178;2023-05-10T11:08:34;10.88;;;8.60;;
7645;SDS011;3864;48.180;14.178;2023-05-10T11:11:05;12.98;;;9.70;;
7645;SDS011;3864;48.180;14.178;2023-05-10T11:13:34;12.95;;;9.50;;
7645;SDS011;3864;48.180;14.178;2023-05-10T11:16:13;11.48;;;9.40;;
7645;SDS011;3864;48.180;14.178;2023-05-10T11:18:41;12.35;;;9.57;;
7645;SDS011;3864;48.180;14.178;2023-05-10T11:21:18;13.18;;;10.32;;
7645;SDS011;3864;48.180;14.178;2023-05-10T11:23:50;14.18;;;10.90;;
7645;SDS011;3864;48.180;14.178;2023-05-10T11:26:17;17.17;;;11.73;;
7645;SDS011;3864;48.180;14.178;2023-05-10T11:28:46;16.55;;;11.57;;
7645;SDS011;3864;48.180;14.178;2023-05-10T11:31:13;15.82;;;12.05;;
7645;SDS011;3864;48.180;14.178;2023-05-10T11:33:43;26.92;;;19.40;;
7645;SDS011;3864;48.180;14.178;2023-05-10T11:36:11;14.98;;;12.20;;
7645;SDS011;3864;48.180;14.178;2023-05-10T11:38:38;15.00;;;12.40;;
7645;SDS011;3864;48.180;14.178;2023-05-10T11:41:07;14.52;;;12.43;;
7645;SDS011;3864;48.180;14.178;2023-05-10T11:43:34;12.52;;;11.23;;
7645;SDS011;3864;48.180;14.178;2023-05-10T11:46:03;13.98;;;12.05;;
7645;SDS011;3864;48.180;14.178;2023-05-10T11:48:30;15.27;;;12.77;;
7645;SDS011;3864;48.180;14.178;2023-05-10T11:50:58;16.35;;;12.88;;
7645;SDS011;3864;48.180;14.178;2023-05-10T11:53:27;14.48;;;11.30;;
7645;SDS011;3864;48.180;14.178;2023-05-10T11:55:54;13.25;;;11.00;;
7645;SDS011;3864;48.180;14.178;2023-05-10T11:58:22;14.90;;;11.18;;
7645;SDS011;3864;48.180;14.178;2023-05-10T12:00:49;14.13;;;11.32;;
7645;SDS011;3864;48.180;14.178;2023-05-10T12:03:16;12.63;;;11.30;;
7645;SDS011;3864;48.180;14.178;2023-05-10T12:05:43;15.07;;;11.63;;
7645;SDS011;3864;48.180;14.178;2023-05-10T12:08:11;14.07;;;10.68;;
7645;SDS011;3864;48.180;14.178;2023-05-10T12:10:38;15.57;;;12.68;;
7645;SDS011;3864;48.180;14.178;2023-05-10T12:13:05;14.98;;;11.98;;
7645;SDS011;3864;48.180;14.178;2023-05-10T12:15:35;14.02;;;10.70;;
7645;SDS011;3864;48.180;14.178;2023-05-10T12:18:02;13.27;;;11.20;;
7645;SDS011;3864;48.180;14.178;2023-05-10T12:20:30;15.73;;;10.43;;
7645;SDS011;3864;48.180;14.178;2023-05-10T12:22:57;13.95;;;9.73;;
7645;SDS011;3864;48.180;14.178;2023-05-10T12:25:29;10.05;;;8.05;;
7645;SDS011;3864;48.180;14.178;2023-05-10T12:27:57;12.57;;;9.55;;
7645;SDS011;3864;48.180;14.178;2023-05-10T12:30:26;17.58;;;13.95;;
7645;SDS011;3864;48.180;14.178;2023-05-10T12:32:59;3.35;;;2.72;;
7645;SDS011;3864;48.180;14.178;2023-05-10T12:35:26;3.60;;;2.40;;
7645;SDS011;3864;48.180;14.178;2023-05-10T12:37:53;3.20;;;2.40;;
7645;SDS011;3864;48.180;14.178;2023-05-10T12:40:20;2.47;;;1.80;;
7645;SDS011;3864;48.180;14.178;2023-05-10T12:42:47;2.42;;;1.83;;
7645;SDS011;3864;48.180;14.178;2023-05-10T12:45:14;2.95;;;2.00;;
7645;SDS011;3864;48.180;14.178;2023-05-10T12:47:40;2.30;;;1.60;;
7645;SDS011;3864;48.180;14.178;2023-05-10T12:50:10;2.30;;;1.65;;
7645;SDS011;3864;48.180;14.178;2023-05-10T12:52:37;3.08;;;1.80;;
7645;SDS011;3864;48.180;14.178;2023-05-10T12:55:04;2.15;;;1.45;;
7645;SDS011;3864;48.180;14.178;2023-05-10T12:57:31;2.15;;;1.55;;
7645;SDS011;3864;48.180;14.178;2023-05-10T12:59:58;3.42;;;1.98;;
7645;SDS011;3864;48.180;14.178;2023-05-10T13:02:25;2.63;;;2.10;;
7645;SDS011;3864;48.180;14.178;2023-05-10T13:04:52;3.10;;;2.05;;
7645;SDS011;3864;48.180;14.178;2023-05-10T13:07:21;2.90;;;1.73;;
7645;SDS011;3864;48.180;14.178;2023-05-10T13:09:48;2.78;;;1.60;;
7645;SDS011;3864;48.180;14.178;2023-05-10T13:12:15;2.30;;;1.65;;
7645;SDS011;3864;48.180;14.178;2023-05-10T13:14:42;2.75;;;1.73;;
7645;SDS011;3864;48.180;14.178;2023-05-10T13:17:09;2.40;;;1.70;;
7645;SDS011;3864;48.180;14.178;2023-05-10T13:19:36;2.20;;;1.60;;
7645;SDS011;3864;48.180;14.178;2023-05-10T13:22:03;2.10;;;1.63;;
7645;SDS011;3864;48.180;14.178;2023-05-10T13:24:32;1.98;;;1.52;;
7645;SDS011;3864;48.180;14.178;2023-05-10T13:27:00;2.35;;;1.80;;
7645;SDS011;3864;48.180;14.178;2023-05-10T13:29:27;2.60;;;1.65;;
7645;SDS011;3864;48.180;14.178;2023-05-10T13:31:54;2.92;;;1.70;;
7645;SDS011;3864;48.180;14.178;2023-05-10T13:34:21;2.40;;;1.73;;
7645;SDS011;3864;48.180;14.178;2023-05-10T13:36:49;2.55;;;1.75;;
7645;SDS011;3864;48.180;14.178;2023-05-10T13:39:16;2.25;;;1.60;;
7645;SDS011;3864;48.180;14.178;2023-05-10T13:41:45;2.20;;;1.63;;
7645;SDS011;3864;48.180;14.178;2023-05-10T13:44:12;2.50;;;1.60;;
7645;SDS011;3864;48.180;14.178;2023-05-10T13:46:39;2.15;;;1.55;;
7645;SDS011;3864;48.180;14.178;2023-05-10T13:49:08;2.45;;;1.60;;
7645;SDS011;3864;48.180;14.178;2023-05-10T13:51:35;2.78;;;1.85;;
7645;SDS011;3864;48.180;14.178;2023-05-10T13:54:02;2.30;;;1.70;;
7645;SDS011;3864;48.180;14.178;2023-05-10T13:56:29;2.67;;;1.95;;
7645;SDS011;3864;48.180;14.178;2023-05-10T13:58:57;2.25;;;1.60;;
7645;SDS011;3864;48.180;14.178;2023-05-10T14:01:24;3.47;;;2.15;;
7645;SDS011;3864;48.180;14.178;2023-05-10T14:03:51;3.63;;;2.30;;
7645;SDS011;3864;48.180;14.178;2023-05-10T14:06:18;2.97;;;2.30;;
7645;SDS011;3864;48.180;14.178;2023-05-10T14:08:45;3.42;;;2.00;;
7645;SDS011;3864;48.180;14.178;2023-05-10T14:11:12;3.08;;;2.15;;
7645;SDS011;3864;48.180;14.178;2023-05-10T14:13:39;3.38;;;1.90;;
7645;SDS011;3864;48.180;14.178;2023-05-10T14:16:08;4.25;;;2.08;;
7645;SDS011;3864;48.180;14.178;2023-05-10T14:18:35;2.42;;;1.83;;
7645;SDS011;3864;48.180;14.178;2023-05-10T14:21:02;2.83;;;1.63;;
7645;SDS011;3864;48.180;14.178;2023-05-10T14:23:28;2.22;;;1.58;;
7645;SDS011;3864;48.180;14.178;2023-05-10T14:25:55;2.20;;;1.83;;
7645;SDS011;3864;48.180;14.178;2023-05-10T14:28:23;2.65;;;1.80;;
7645;SDS011;3864;48.180;14.178;2023-05-10T14:30:50;2.40;;;1.80;;
7645;SDS011;3864;48.180;14.178;2023-05-10T14:33:18;2.28;;;1.77;;
7645;SDS011;3864;48.180;14.178;2023-05-10T14:35:45;2.58;;;1.77;;
7645;SDS011;3864;48.180;14.178;2023-05-10T14:38:13;2.72;;;1.80;;
7645;SDS011;3864;48.180;14.178;2023-05-10T14:40:40;2.03;;;1.63;;
7645;SDS011;3864;48.180;14.178;2023-05-10T14:43:07;2.25;;;1.65;;
7645;SDS011;3864;48.180;14.178;2023-05-10T14:45:34;1.77;;;1.52;;
7645;SDS011;3864;48.180;14.178;2023-05-10T14:48:00;2.67;;;1.60;;
7645;SDS011;3864;48.180;14.178;2023-05-10T14:50:31;1.60;;;1.40;;
7645;SDS011;3864;48.180;14.178;2023-05-10T14:52:58;1.63;;;1.30;;
7645;SDS011;3864;48.180;14.178;2023-05-10T14:55:25;1.88;;;1.35;;
7645;SDS011;3864;48.180;14.178;2023-05-10T14:57:52;1.73;;;1.33;;
7645;SDS011;3864;48.180;14.178;2023-05-10T15:00:19;1.95;;;1.60;;
7645;SDS011;3864;48.180;14.178;2023-05-10T15:02:46;2.17;;;1.50;;
7645;SDS011;3864;48.180;14.178;2023-05-10T15:05:13;3.00;;;1.60;;
7645;SDS011;3864;48.180;14.178;2023-05-10T15:07:42;3.30;;;1.63;;
7645;SDS011;3864;48.180;14.178;2023-05-10T15:10:09;3.75;;;1.73;;
7645;SDS011;3864;48.180;14.178;2023-05-10T15:12:37;2.30;;;1.65;;
7645;SDS011;3864;48.180;14.178;2023-05-10T15:15:04;4.20;;;1.77;;
7645;SDS011;3864;48.180;14.178;2023-05-10T15:17:31;2.58;;;2.00;;
7645;SDS011;3864;48.180;14.178;2023-05-10T15:19:58;2.65;;;1.70;;
7645;SDS011;3864;48.180;14.178;2023-05-10T15:22:25;2.28;;;1.70;;
7645;SDS011;3864;48.180;14.178;2023-05-10T15:24:54;3.25;;;1.90;;
7645;SDS011;3864;48.180;14.178;2023-05-10T15:27:21;2.30;;;1.70;;
7645;SDS011;3864;48.180;14.178;2023-05-10T15:29:48;2.35;;;1.60;;
7645;SDS011;3864;48.180;14.178;2023-05-10T15:32:15;2.10;;;1.52;;
7645;SDS011;3864;48.180;14.178;2023-05-10T15:34:42;2.20;;;1.50;;